Detall de PIREP

Printer-friendly versionPDF version

[2012/09/02 09:20:00]
Flight IATA:CT1021
Pilot Number:042
Company ICAO:CAT
Aircraft Type:B763/F
PAX:0
Departing Airport: KEWR
Destination Airport: LPAZ
Alternate Airport:LPPD
Online: VATSIM
Route:DCT DIXIE V276 MANTA OWENZ DOVEY 4160N 4155N 4150N 4145N 4140N 4135N DCT SOMUL DCT VSM DCT
Flight Level:F370
No Slew and time accel
No pause
Crash detect
Detect pilot in Cockpit between each 30 and 45 minutes
09:20 Zero fuel Weight: 197001 Lbs, Fuel Weight: 161640 Lbs
09:20 VATSIM:KEWR 020851Z 08006KT 10SM FEW015 OVC033 23/19 A3006 RMK AO2 SLP177 T02330194 51000
09:20 VATSIM:LPAZ 020830Z VRB02KT 9999 BKN030 21/13 Q1025
09:20 VOICE CATALONIAN/BOEING TRANSPORT
09:29 Parking Brakes off
09:36 Take-off
09:36 Take off Weight: 356239 Lbs
09:36 Wind: 093º @ 003 Knots Heading: 026º
09:36 POS N40º 41´ 29´´ W074º 10´ 08´´
09:36 Gear Up: 185 Knots
09:36 Flaps:3 at 185 Knots
09:37 Flaps:2 at 189 Knots
09:37 Flaps:1 at 209 Knots
09:38 Flaps:0 at 226 Knots
09:51 Wind:067º@011 Knots Heading: 111º Ground Speed: 431 Knots Altitude 21043 ft
09:57 TOC
09:57 Fuel Weight: 150912 Lb
10:06 Wind:067º@008 Knots Heading: 072º Ground Speed: 440 Knots Altitude 37162 ft
10:21 Wind:081º@012 Knots Heading: 074º Ground Speed: 433 Knots Altitude 37171 ft
10:36 Wind:088º@007 Knots Heading: 090º Ground Speed: 437 Knots Altitude 37185 ft
10:51 Wind:047º@005 Knots Heading: 089º Ground Speed: 438 Knots Altitude 37191 ft
11:06 Wind:007º@015 Knots Heading: 090º Ground Speed: 438 Knots Altitude 37230 ft
11:21 Wind:352º@015 Knots Heading: 087º Ground Speed: 443 Knots Altitude 37234 ft
11:36 Wind:348º@022 Knots Heading: 088º Ground Speed: 446 Knots Altitude 37230 ft
11:51 Wind:345º@032 Knots Heading: 084º Ground Speed: 448 Knots Altitude 37198 ft
12:06 Wind:338º@033 Knots Heading: 086º Ground Speed: 452 Knots Altitude 37175 ft
12:21 Wind:334º@032 Knots Heading: 085º Ground Speed: 454 Knots Altitude 37165 ft
12:36 Wind:324º@035 Knots Heading: 086º Ground Speed: 463 Knots Altitude 37181 ft
12:51 Wind:333º@033 Knots Heading: 085º Ground Speed: 458 Knots Altitude 37191 ft
13:06 Wind:322º@015 Knots Heading: 089º Ground Speed: 458 Knots Altitude 37267 ft
13:21 Wind:139º@007 Knots Heading: 090º Ground Speed: 448 Knots Altitude 37322 ft
13:36 Wind:150º@029 Knots Heading: 093º Ground Speed: 440 Knots Altitude 37339 ft
13:51 Wind:153º@042 Knots Heading: 116º Ground Speed: 423 Knots Altitude 37326 ft
14:06 Wind:158º@052 Knots Heading: 119º Ground Speed: 418 Knots Altitude 37322 ft
14:21 Wind:159º@055 Knots Heading: 120º Ground Speed: 416 Knots Altitude 37322 ft
14:36 Wind:139º@024 Knots Heading: 117º Ground Speed: 436 Knots Altitude 37378 ft
14:39 TOD
14:39 Fuel Weight: 105934 Lb
14:51 Wind:129º@034 Knots Heading: 109º Ground Speed: 305 Knots Altitude 19740 ft
15:06 Wind:125º@013 Knots Heading: 150º Ground Speed: 248 Knots Altitude 4996 ft
15:11 Flaps:1 at 228 Knots
15:19 Gear Down: 229 Knots
15:19 Gear Up: 227 Knots
15:19 Flaps:0 at 216 Knots
15:19 Flaps:2 at 214 Knots
15:21 Wind:075º@007 Knots Heading: 066º Ground Speed: 179 Knots Altitude 1489 ft
15:21 Gear Down: 177 Knots
15:21 Flaps:3 at 177 Knots
15:22 Flaps:4 at 172 Knots
15:22 Flaps:5 at 158 Knots
15:27 TouchDown:Rate -179 ft/min Speed: 136 Knots
15:28 VATSIM:LPAZ 021500Z 09007KT 040V130 9999 SCT034 24/09 Q1025
15:28 Land
15:28 Wind:113º@007 Knots
15:28 Heading: 349º
15:28 Flight Duration: 05:52
15:28 Landing Weight: 296354 Lbs
15:28 POS N36º 58´ 42´´ W025º 10´ 19´´
15:33 Parking brakes on
15:33 Block to Block Duration: 06:04
15:33 Final Fuel: 98432 Lbls
15:33 Spent Fuel: 63207 Lbls
15:33 Flight Length: 2415 NM
15:33 TOD Land Length: 214 NM

Exportar CSV

Powered by Drupal - Modified by Danger4k